Jacksonville, FL (32224)

1:54 AM EST on December 06, 2016 (GMT -0500)
Jax testing | | Change Station

Elev 20 ft 30.28 °N, 81.47 °W | Updated 467 days ago

Thunderstorm
Thunderstorm
71 °F
Feels Like 71 °F
N
9
Wind Variable Wind from SSW
Gusts mph

Today
High -- | Low -- °F
--% Chance of Precip.
Yesterday
High -- | Low -- °F
Precip. -- in
Pressure 29.84 in
Visibility 10.0 miles
Clouds Few 5000 ft
Few 9500 ft
Scattered Clouds 12000 ft
Dew Point 68 °F
Humidity 91%
Rainfall in
Snow Depth Not available.
7:09 AM 5:25 PM
Waxing Crescent, 39% visible
METAR KCRG 060553Z AUTO 21009KT 10SM -RA FEW050 FEW095 SCT120 23/20 A2984 RMK AO2 SLP105 P0000 60000 T02330200 10244 20228 58009 $
Pressure 29.84 in
Visibility 10.0 miles
Clouds Few 5000 ft
Few 9500 ft
Scattered Clouds 12000 ft
Dew Point 68 °F
Humidity 91%
Rainfall in
Snow Depth Not available.
7:09 AM 5:25 PM
Waxing Crescent, 39% visible
METAR KCRG 060553Z AUTO 21009KT 10SM -RA FEW050 FEW095 SCT120 23/20 A2984 RMK AO2 SLP105 P0000 60000 T02330200 10244 20228 58009 $

10-Day Weather Forecast

Almanac

Astronomy

Dec. 06, 2016 Rise Set
Actual Time
Civil Twilight
Nautical Twilight
Astronomical Twilight
Moon
Length of Visible Light
Length of Day
Tomorrow will be .
, % of the Moon is Illuminated

Today's Extremes

State Highs State Lows

Community

WunderPhotos

Upload Photos

1,955,932 photos uploaded!

WunderBlog® & News

Nearby

Air Quality

  Air Quality AQ Index Pollutant
Not available.

Snow Depth

Station Depth Elevation

Earthquake Activity

City Distance Mag. Time & Date
Minimum magnitude displayed is 2.5.

Coastal Water Temperatures

Place Temperature

Stations

Nearby Weather Stations

Station Location Temp. Windchill Dew Point Humidity Wind Precip. Elev Updated Type
                   

Watches & Warnings

There are currently no watches in effect.